sensor_id;sensor_type;location;lat;lon;timestamp;temperature;humidity
14378;DHT22;7272;53.668;9.578;2024-01-10T00:02:23;-1.50;99.90
14378;DHT22;7272;53.668;9.578;2024-01-10T00:05:24;-1.40;99.90
14378;DHT22;7272;53.668;9.578;2024-01-10T00:08:25;-1.40;99.90
14378;DHT22;7272;53.668;9.578;2024-01-10T00:11:27;-1.30;99.90
14378;DHT22;7272;53.668;9.578;2024-01-10T00:14:29;-1.30;99.90
14378;DHT22;7272;53.668;9.578;2024-01-10T00:17:30;-1.30;99.90
14378;DHT22;7272;53.668;9.578;2024-01-10T00:20:31;-1.20;99.90
14378;DHT22;7272;53.668;9.578;2024-01-10T00:23:32;-1.20;99.90
14378;DHT22;7272;53.668;9.578;2024-01-10T00:26:34;-1.20;99.90
14378;DHT22;7272;53.668;9.578;2024-01-10T00:29:36;-1.20;99.90
14378;DHT22;7272;53.668;9.578;2024-01-10T00:32:37;-1.20;99.90
14378;DHT22;7272;53.668;9.578;2024-01-10T00:35:38;-1.20;99.90
14378;DHT22;7272;53.668;9.578;2024-01-10T00:38:39;-1.20;99.90
14378;DHT22;7272;53.668;9.578;2024-01-10T00:41:41;-1.20;99.90
14378;DHT22;7272;53.668;9.578;2024-01-10T00:44:43;-1.20;99.90
14378;DHT22;7272;53.668;9.578;2024-01-10T00:47:44;-1.20;99.90
14378;DHT22;7272;53.668;9.578;2024-01-10T00:50:45;-1.20;99.90
14378;DHT22;7272;53.668;9.578;2024-01-10T00:53:47;-1.20;99.90
14378;DHT22;7272;53.668;9.578;2024-01-10T00:56:48;-1.20;99.90
14378;DHT22;7272;53.668;9.578;2024-01-10T00:59:51;-1.20;99.90
14378;DHT22;7272;53.668;9.578;2024-01-10T01:02:53;-1.20;99.90
14378;DHT22;7272;53.668;9.578;2024-01-10T01:05:54;-1.20;99.90
14378;DHT22;7272;53.668;9.578;2024-01-10T01:08:55;-1.20;99.90
14378;DHT22;7272;53.668;9.578;2024-01-10T01:11:57;-1.20;99.90
14378;DHT22;7272;53.668;9.578;2024-01-10T01:14:59;-1.30;99.90
14378;DHT22;7272;53.668;9.578;2024-01-10T01:18:00;-1.30;99.90
14378;DHT22;7272;53.668;9.578;2024-01-10T01:21:02;-1.20;99.90
14378;DHT22;7272;53.668;9.578;2024-01-10T01:24:04;-1.30;99.90
14378;DHT22;7272;53.668;9.578;2024-01-10T01:27:05;-1.40;99.90
14378;DHT22;7272;53.668;9.578;2024-01-10T01:30:08;-1.40;99.90
14378;DHT22;7272;53.668;9.578;2024-01-10T01:33:12;-1.40;99.90
14378;DHT22;7272;53.668;9.578;2024-01-10T01:36:13;-1.50;99.90
14378;DHT22;7272;53.668;9.578;2024-01-10T01:39:14;-1.40;99.90
14378;DHT22;7272;53.668;9.578;2024-01-10T01:42:15;-1.50;99.90
14378;DHT22;7272;53.668;9.578;2024-01-10T01:45:17;-1.60;99.90
14378;DHT22;7272;53.668;9.578;2024-01-10T01:48:19;-1.60;99.90
14378;DHT22;7272;53.668;9.578;2024-01-10T01:51:22;-1.60;99.90
14378;DHT22;7272;53.668;9.578;2024-01-10T01:54:24;-1.60;99.90
14378;DHT22;7272;53.668;9.578;2024-01-10T01:57:25;-1.60;99.90
14378;DHT22;7272;53.668;9.578;2024-01-10T02:00:27;-1.60;99.90
14378;DHT22;7272;53.668;9.578;2024-01-10T02:03:30;-1.60;99.90
14378;DHT22;7272;53.668;9.578;2024-01-10T02:06:31;-1.60;99.90
14378;DHT22;7272;53.668;9.578;2024-01-10T02:09:33;-1.60;99.90
14378;DHT22;7272;53.668;9.578;2024-01-10T02:12:34;-1.50;99.90
14378;DHT22;7272;53.668;9.578;2024-01-10T02:15:37;-1.40;99.90
14378;DHT22;7272;53.668;9.578;2024-01-10T02:18:41;-1.30;99.90
14378;DHT22;7272;53.668;9.578;2024-01-10T02:21:42;-1.20;99.90
14378;DHT22;7272;53.668;9.578;2024-01-10T02:24:43;-1.20;99.90
14378;DHT22;7272;53.668;9.578;2024-01-10T02:27:45;-1.30;99.90
14378;DHT22;7272;53.668;9.578;2024-01-10T02:30:46;-1.30;99.90
14378;DHT22;7272;53.668;9.578;2024-01-10T02:33:47;-1.40;99.90
14378;DHT22;7272;53.668;9.578;2024-01-10T02:36:49;-1.40;99.90
14378;DHT22;7272;53.668;9.578;2024-01-10T02:39:50;-1.40;99.90
14378;DHT22;7272;53.668;9.578;2024-01-10T02:42:52;-1.40;99.90
14378;DHT22;7272;53.668;9.578;2024-01-10T02:45:53;-1.40;99.90
14378;DHT22;7272;53.668;9.578;2024-01-10T02:48:55;-1.40;99.90
14378;DHT22;7272;53.668;9.578;2024-01-10T02:51:56;-1.40;99.90
14378;DHT22;7272;53.668;9.578;2024-01-10T02:54:57;-1.40;99.90
14378;DHT22;7272;53.668;9.578;2024-01-10T02:57:59;-1.50;99.90
14378;DHT22;7272;53.668;9.578;2024-01-10T03:01:00;-1.50;99.90
14378;DHT22;7272;53.668;9.578;2024-01-10T03:04:02;-1.40;99.90
14378;DHT22;7272;53.668;9.578;2024-01-10T03:07:03;-1.40;99.90
14378;DHT22;7272;53.668;9.578;2024-01-10T03:10:05;-1.40;99.90
14378;DHT22;7272;53.668;9.578;2024-01-10T03:13:07;-1.50;99.90
14378;DHT22;7272;53.668;9.578;2024-01-10T03:16:08;-1.40;99.90
14378;DHT22;7272;53.668;9.578;2024-01-10T03:19:10;-1.40;99.90
14378;DHT22;7272;53.668;9.578;2024-01-10T03:22:12;-1.30;99.90
14378;DHT22;7272;53.668;9.578;2024-01-10T03:25:13;-1.30;99.90
14378;DHT22;7272;53.668;9.578;2024-01-10T03:28:16;-1.30;99.90
14378;DHT22;7272;53.668;9.578;2024-01-10T03:31:18;-1.40;99.90
14378;DHT22;7272;53.668;9.578;2024-01-10T03:34:19;-1.30;99.90
14378;DHT22;7272;53.668;9.578;2024-01-10T03:37:20;-1.30;99.90
14378;DHT22;7272;53.668;9.578;2024-01-10T03:40:21;-1.30;99.90
14378;DHT22;7272;53.668;9.578;2024-01-10T03:43:23;-1.30;99.90
14378;DHT22;7272;53.668;9.578;2024-01-10T03:46:24;-1.30;99.90
14378;DHT22;7272;53.668;9.578;2024-01-10T03:49:26;-1.30;99.90
14378;DHT22;7272;53.668;9.578;2024-01-10T03:52:27;-1.20;99.90
14378;DHT22;7272;53.668;9.578;2024-01-10T03:55:28;-1.20;99.90
14378;DHT22;7272;53.668;9.578;2024-01-10T03:58:31;-1.20;99.90
14378;DHT22;7272;53.668;9.578;2024-01-10T04:01:32;-1.20;99.90
14378;DHT22;7272;53.668;9.578;2024-01-10T04:04:36;-1.20;99.90
14378;DHT22;7272;53.668;9.578;2024-01-10T04:07:39;-1.10;99.90
14378;DHT22;7272;53.668;9.578;2024-01-10T04:10:42;-1.10;99.90
14378;DHT22;7272;53.668;9.578;2024-01-10T04:13:44;-1.20;99.90
14378;DHT22;7272;53.668;9.578;2024-01-10T04:16:45;-1.30;99.90
14378;DHT22;7272;53.668;9.578;2024-01-10T04:19:46;-1.40;99.90
14378;DHT22;7272;53.668;9.578;2024-01-10T04:22:47;-1.40;99.90
14378;DHT22;7272;53.668;9.578;2024-01-10T04:25:49;-1.40;99.90
14378;DHT22;7272;53.668;9.578;2024-01-10T04:28:50;-1.40;99.90
14378;DHT22;7272;53.668;9.578;2024-01-10T04:31:52;-1.40;99.90
14378;DHT22;7272;53.668;9.578;2024-01-10T04:34:53;-1.30;99.90
14378;DHT22;7272;53.668;9.578;2024-01-10T04:37:54;-1.30;99.90
14378;DHT22;7272;53.668;9.578;2024-01-10T04:40:55;-1.30;99.90
14378;DHT22;7272;53.668;9.578;2024-01-10T04:43:57;-1.40;99.90
14378;DHT22;7272;53.668;9.578;2024-01-10T04:46:58;-1.30;99.90
14378;DHT22;7272;53.668;9.578;2024-01-10T04:50:00;-1.30;99.90
14378;DHT22;7272;53.668;9.578;2024-01-10T04:53:01;-1.30;99.90
14378;DHT22;7272;53.668;9.578;2024-01-10T04:56:02;-1.20;99.90
14378;DHT22;7272;53.668;9.578;2024-01-10T04:59:04;-1.20;99.90
14378;DHT22;7272;53.668;9.578;2024-01-10T05:02:06;-1.10;99.90
14378;DHT22;7272;53.668;9.578;2024-01-10T05:05:07;-1.20;99.90
14378;DHT22;7272;53.668;9.578;2024-01-10T05:08:09;-1.20;99.90
14378;DHT22;7272;53.668;9.578;2024-01-10T05:11:10;-1.10;99.90
14378;DHT22;7272;53.668;9.578;2024-01-10T05:14:12;-1.10;99.90
14378;DHT22;7272;53.668;9.578;2024-01-10T05:17:13;-1.10;99.90
14378;DHT22;7272;53.668;9.578;2024-01-10T05:20:14;-1.00;99.90
14378;DHT22;7272;53.668;9.578;2024-01-10T05:23:16;-1.00;99.90
14378;DHT22;7272;53.668;9.578;2024-01-10T05:26:18;-1.10;99.90
14378;DHT22;7272;53.668;9.578;2024-01-10T05:29:19;-1.00;99.90
14378;DHT22;7272;53.668;9.578;2024-01-10T05:32:22;-1.10;99.90
14378;DHT22;7272;53.668;9.578;2024-01-10T05:35:24;-1.10;99.90
14378;DHT22;7272;53.668;9.578;2024-01-10T05:38:26;-1.20;99.90
14378;DHT22;7272;53.668;9.578;2024-01-10T05:41:27;-1.20;99.90
14378;DHT22;7272;53.668;9.578;2024-01-10T05:44:30;-1.30;99.90
14378;DHT22;7272;53.668;9.578;2024-01-10T05:47:35;-1.20;99.90
14378;DHT22;7272;53.668;9.578;2024-01-10T05:50:36;-1.30;99.90
14378;DHT22;7272;53.668;9.578;2024-01-10T05:53:37;-1.30;99.90
14378;DHT22;7272;53.668;9.578;2024-01-10T05:56:39;-1.40;99.90
14378;DHT22;7272;53.668;9.578;2024-01-10T05:59:40;-1.40;99.90
14378;DHT22;7272;53.668;9.578;2024-01-10T06:02:42;-1.40;99.90
14378;DHT22;7272;53.668;9.578;2024-01-10T06:05:43;-1.50;99.90
14378;DHT22;7272;53.668;9.578;2024-01-10T06:08:45;-1.70;99.90
14378;DHT22;7272;53.668;9.578;2024-01-10T06:11:46;-1.60;99.90
14378;DHT22;7272;53.668;9.578;2024-01-10T06:14:48;-1.70;99.90
14378;DHT22;7272;53.668;9.578;2024-01-10T06:17:49;-1.70;99.90
14378;DHT22;7272;53.668;9.578;2024-01-10T06:20:50;-1.70;99.90
14378;DHT22;7272;53.668;9.578;2024-01-10T06:23:52;-1.60;99.90
14378;DHT22;7272;53.668;9.578;2024-01-10T06:26:53;-1.60;99.90
14378;DHT22;7272;53.668;9.578;2024-01-10T06:29:55;-1.70;99.90
14378;DHT22;7272;53.668;9.578;2024-01-10T06:32:56;-1.70;99.90
14378;DHT22;7272;53.668;9.578;2024-01-10T06:35:57;-1.80;99.90
14378;DHT22;7272;53.668;9.578;2024-01-10T06:38:59;-1.70;99.90
14378;DHT22;7272;53.668;9.578;2024-01-10T06:42:00;-1.70;99.90
14378;DHT22;7272;53.668;9.578;2024-01-10T06:45:06;-1.80;99.90
14378;DHT22;7272;53.668;9.578;2024-01-10T06:48:08;-1.90;99.90
14378;DHT22;7272;53.668;9.578;2024-01-10T06:51:10;-1.90;99.90
14378;DHT22;7272;53.668;9.578;2024-01-10T06:54:12;-1.90;99.90
14378;DHT22;7272;53.668;9.578;2024-01-10T06:57:15;-1.90;99.90
14378;DHT22;7272;53.668;9.578;2024-01-10T07:00:17;-1.90;99.90
14378;DHT22;7272;53.668;9.578;2024-01-10T07:03:19;-1.80;99.90
14378;DHT22;7272;53.668;9.578;2024-01-10T07:06:20;-1.80;99.90
14378;DHT22;7272;53.668;9.578;2024-01-10T07:09:21;-1.90;99.90
14378;DHT22;7272;53.668;9.578;2024-01-10T07:12:22;-1.90;99.90
14378;DHT22;7272;53.668;9.578;2024-01-10T07:15:24;-1.90;99.90
14378;DHT22;7272;53.668;9.578;2024-01-10T07:18:25;-1.90;99.90
14378;DHT22;7272;53.668;9.578;2024-01-10T07:21:26;-1.90;99.90
14378;DHT22;7272;53.668;9.578;2024-01-10T07:24:28;-2.00;99.90
14378;DHT22;7272;53.668;9.578;2024-01-10T07:27:29;-1.90;99.90
14378;DHT22;7272;53.668;9.578;2024-01-10T07:30:31;-1.90;99.90
14378;DHT22;7272;53.668;9.578;2024-01-10T07:33:34;-1.80;99.90
14378;DHT22;7272;53.668;9.578;2024-01-10T07:36:41;-1.80;99.90
14378;DHT22;7272;53.668;9.578;2024-01-10T07:39:43;-1.80;99.90
14378;DHT22;7272;53.668;9.578;2024-01-10T07:42:44;-1.80;99.90
14378;DHT22;7272;53.668;9.578;2024-01-10T07:45:46;-1.80;99.90
14378;DHT22;7272;53.668;9.578;2024-01-10T07:48:48;-1.70;99.90
14378;DHT22;7272;53.668;9.578;2024-01-10T07:51:49;-1.60;99.90
14378;DHT22;7272;53.668;9.578;2024-01-10T07:54:50;-1.50;99.90
14378;DHT22;7272;53.668;9.578;2024-01-10T07:57:51;-1.30;99.90
14378;DHT22;7272;53.668;9.578;2024-01-10T08:00:53;-1.20;99.90
14378;DHT22;7272;53.668;9.578;2024-01-10T08:03:55;-1.20;99.90
14378;DHT22;7272;53.668;9.578;2024-01-10T08:06:57;-1.10;99.90
14378;DHT22;7272;53.668;9.578;2024-01-10T08:09:58;-1.10;99.90
14378;DHT22;7272;53.668;9.578;2024-01-10T08:13:00;-1.10;99.90
14378;DHT22;7272;53.668;9.578;2024-01-10T08:16:02;-1.00;99.90
14378;DHT22;7272;53.668;9.578;2024-01-10T08:19:04;-1.00;99.90
14378;DHT22;7272;53.668;9.578;2024-01-10T08:22:05;-0.90;99.90
14378;DHT22;7272;53.668;9.578;2024-01-10T08:25:08;-0.90;99.90
14378;DHT22;7272;53.668;9.578;2024-01-10T08:28:10;-0.80;99.90
14378;DHT22;7272;53.668;9.578;2024-01-10T08:31:12;-0.80;99.90
14378;DHT22;7272;53.668;9.578;2024-01-10T08:34:17;-0.70;99.90
14378;DHT22;7272;53.668;9.578;2024-01-10T08:37:19;-0.70;99.90
14378;DHT22;7272;53.668;9.578;2024-01-10T08:40:22;-0.70;99.90
14378;DHT22;7272;53.668;9.578;2024-01-10T08:43:25;-0.70;99.90
14378;DHT22;7272;53.668;9.578;2024-01-10T08:46:27;-0.70;99.90
14378;DHT22;7272;53.668;9.578;2024-01-10T08:49:28;-0.60;99.90
14378;DHT22;7272;53.668;9.578;2024-01-10T08:52:30;-0.60;99.90
14378;DHT22;7272;53.668;9.578;2024-01-10T08:55:31;-0.50;99.90
14378;DHT22;7272;53.668;9.578;2024-01-10T08:58:33;-0.50;99.90
14378;DHT22;7272;53.668;9.578;2024-01-10T09:01:34;-0.40;99.90
14378;DHT22;7272;53.668;9.578;2024-01-10T09:04:35;-0.40;99.90
14378;DHT22;7272;53.668;9.578;2024-01-10T09:07:37;-0.40;99.90
14378;DHT22;7272;53.668;9.578;2024-01-10T09:10:38;-0.40;99.90
14378;DHT22;7272;53.668;9.578;2024-01-10T09:13:41;-0.30;99.90
14378;DHT22;7272;53.668;9.578;2024-01-10T09:16:43;-0.30;99.90
14378;DHT22;7272;53.668;9.578;2024-01-10T09:19:44;-0.30;99.90
14378;DHT22;7272;53.668;9.578;2024-01-10T09:22:45;-0.30;99.90
14378;DHT22;7272;53.668;9.578;2024-01-10T09:25:47;-0.30;99.90
14378;DHT22;7272;53.668;9.578;2024-01-10T09:28:48;-0.30;99.90
14378;DHT22;7272;53.668;9.578;2024-01-10T09:31:50;-0.30;99.90
14378;DHT22;7272;53.668;9.578;2024-01-10T09:34:52;-0.40;99.90
14378;DHT22;7272;53.668;9.578;2024-01-10T09:37:53;-0.40;99.90
14378;DHT22;7272;53.668;9.578;2024-01-10T09:40:59;-0.30;99.90
14378;DHT22;7272;53.668;9.578;2024-01-10T09:44:02;-0.40;99.90
14378;DHT22;7272;53.668;9.578;2024-01-10T09:47:04;-0.40;99.90
14378;DHT22;7272;53.668;9.578;2024-01-10T09:50:07;-0.40;99.90
14378;DHT22;7272;53.668;9.578;2024-01-10T09:53:15;-0.40;99.90
14378;DHT22;7272;53.668;9.578;2024-01-10T09:56:19;-0.40;99.90
14378;DHT22;7272;53.668;9.578;2024-01-10T09:59:20;-0.40;99.90
14378;DHT22;7272;53.668;9.578;2024-01-10T10:02:23;-0.30;99.90
14378;DHT22;7272;53.668;9.578;2024-01-10T10:05:25;-0.30;99.90
14378;DHT22;7272;53.668;9.578;2024-01-10T10:08:26;-0.20;99.90
14378;DHT22;7272;53.668;9.578;2024-01-10T10:11:27;-0.10;99.90
14378;DHT22;7272;53.668;9.578;2024-01-10T10:14:29;0.00;99.90
14378;DHT22;7272;53.668;9.578;2024-01-10T10:17:31;0.10;99.90
14378;DHT22;7272;53.668;9.578;2024-01-10T10:20:32;0.10;99.90
14378;DHT22;7272;53.668;9.578;2024-01-10T10:23:34;0.10;99.90
14378;DHT22;7272;53.668;9.578;2024-01-10T10:26:35;0.10;99.90
14378;DHT22;7272;53.668;9.578;2024-01-10T10:29:37;0.10;99.90
14378;DHT22;7272;53.668;9.578;2024-01-10T10:32:39;0.20;99.90
14378;DHT22;7272;53.668;9.578;2024-01-10T10:35:40;0.10;99.90
14378;DHT22;7272;53.668;9.578;2024-01-10T10:38:41;0.10;99.90
14378;DHT22;7272;53.668;9.578;2024-01-10T10:41:42;0.10;99.90
14378;DHT22;7272;53.668;9.578;2024-01-10T10:44:45;0.10;99.90
14378;DHT22;7272;53.668;9.578;2024-01-10T10:47:48;0.20;99.90
14378;DHT22;7272;53.668;9.578;2024-01-10T10:50:57;0.10;99.90
14378;DHT22;7272;53.668;9.578;2024-01-10T10:54:00;0.00;99.90
14378;DHT22;7272;53.668;9.578;2024-01-10T10:57:02;0.10;99.90
14378;DHT22;7272;53.668;9.578;2024-01-10T11:00:05;0.10;99.90
14378;DHT22;7272;53.668;9.578;2024-01-10T11:03:10;0.10;99.90
14378;DHT22;7272;53.668;9.578;2024-01-10T11:06:12;0.20;99.90
14378;DHT22;7272;53.668;9.578;2024-01-10T11:09:15;0.10;99.90
14378;DHT22;7272;53.668;9.578;2024-01-10T11:12:27;-0.10;99.90
14378;DHT22;7272;53.668;9.578;2024-01-10T11:15:46;0.00;99.90
14378;DHT22;7272;53.668;9.578;2024-01-10T11:19:06;0.10;99.90
14378;DHT22;7272;53.668;9.578;2024-01-10T11:22:22;0.20;99.90
14378;DHT22;7272;53.668;9.578;2024-01-10T11:25:27;0.40;99.90
14378;DHT22;7272;53.668;9.578;2024-01-10T11:28:30;0.30;99.90
14378;DHT22;7272;53.668;9.578;2024-01-10T11:31:32;0.30;99.90
14378;DHT22;7272;53.668;9.578;2024-01-10T11:34:35;0.30;99.90
14378;DHT22;7272;53.668;9.578;2024-01-10T11:37:42;0.20;99.90
14378;DHT22;7272;53.668;9.578;2024-01-10T11:40:47;0.20;99.90
14378;DHT22;7272;53.668;9.578;2024-01-10T11:44:28;0.20;99.90
14378;DHT22;7272;53.668;9.578;2024-01-10T11:47:29;0.20;99.90
14378;DHT22;7272;53.668;9.578;2024-01-10T11:50:31;0.20;99.90
14378;DHT22;7272;53.668;9.578;2024-01-10T11:53:39;0.30;99.90
14378;DHT22;7272;53.668;9.578;2024-01-10T11:56:42;0.40;99.90
14378;DHT22;7272;53.668;9.578;2024-01-10T11:59:44;0.30;99.90
14378;DHT22;7272;53.668;9.578;2024-01-10T12:02:46;0.20;99.90
14378;DHT22;7272;53.668;9.578;2024-01-10T12:05:50;0.20;99.90
14378;DHT22;7272;53.668;9.578;2024-01-10T12:08:51;0.10;99.90
14378;DHT22;7272;53.668;9.578;2024-01-10T12:11:52;0.20;99.90
14378;DHT22;7272;53.668;9.578;2024-01-10T12:14:54;0.30;99.90
14378;DHT22;7272;53.668;9.578;2024-01-10T12:17:55;0.30;99.90
14378;DHT22;7272;53.668;9.578;2024-01-10T12:20:57;0.30;99.90
14378;DHT22;7272;53.668;9.578;2024-01-10T12:23:58;0.40;99.90
14378;DHT22;7272;53.668;9.578;2024-01-10T12:26:59;0.40;99.90
14378;DHT22;7272;53.668;9.578;2024-01-10T12:30:01;0.50;99.90
14378;DHT22;7272;53.668;9.578;2024-01-10T12:33:04;0.40;99.90
14378;DHT22;7272;53.668;9.578;2024-01-10T12:36:07;0.40;99.90
14378;DHT22;7272;53.668;9.578;2024-01-10T12:39:09;0.40;99.90
14378;DHT22;7272;53.668;9.578;2024-01-10T12:42:10;0.40;99.90
14378;DHT22;7272;53.668;9.578;2024-01-10T12:45:20;0.20;99.90
14378;DHT22;7272;53.668;9.578;2024-01-10T12:48:22;-0.10;99.90
14378;DHT22;7272;53.668;9.578;2024-01-10T12:51:24;-0.20;99.90
14378;DHT22;7272;53.668;9.578;2024-01-10T12:54:25;-0.20;99.90
14378;DHT22;7272;53.668;9.578;2024-01-10T12:57:26;-0.30;99.90
14378;DHT22;7272;53.668;9.578;2024-01-10T13:00:27;-0.30;99.90
14378;DHT22;7272;53.668;9.578;2024-01-10T13:03:29;-0.20;99.90
14378;DHT22;7272;53.668;9.578;2024-01-10T13:06:31;-0.10;99.90
14378;DHT22;7272;53.668;9.578;2024-01-10T13:09:32;-0.10;99.90
14378;DHT22;7272;53.668;9.578;2024-01-10T13:12:34;0.00;99.90
14378;DHT22;7272;53.668;9.578;2024-01-10T13:15:35;0.00;99.90
14378;DHT22;7272;53.668;9.578;2024-01-10T13:18:36;0.00;99.90
14378;DHT22;7272;53.668;9.578;2024-01-10T13:21:38;0.00;99.90
14378;DHT22;7272;53.668;9.578;2024-01-10T13:24:41;-0.20;99.90
14378;DHT22;7272;53.668;9.578;2024-01-10T13:27:42;-0.20;99.90
14378;DHT22;7272;53.668;9.578;2024-01-10T13:30:44;-0.20;99.90
14378;DHT22;7272;53.668;9.578;2024-01-10T13:33:45;-0.20;99.90
14378;DHT22;7272;53.668;9.578;2024-01-10T13:36:47;-0.30;99.90
14378;DHT22;7272;53.668;9.578;2024-01-10T13:39:48;-0.30;99.90
14378;DHT22;7272;53.668;9.578;2024-01-10T13:42:49;-0.30;99.90
14378;DHT22;7272;53.668;9.578;2024-01-10T13:45:51;-0.30;99.90
14378;DHT22;7272;53.668;9.578;2024-01-10T13:48:52;-0.30;99.90
14378;DHT22;7272;53.668;9.578;2024-01-10T13:51:54;-0.30;99.90
14378;DHT22;7272;53.668;9.578;2024-01-10T13:54:55;-0.30;99.90
14378;DHT22;7272;53.668;9.578;2024-01-10T13:57:57;-0.20;99.90
14378;DHT22;7272;53.668;9.578;2024-01-10T14:00:58;-0.20;99.90
14378;DHT22;7272;53.668;9.578;2024-01-10T14:04:00;-0.20;99.90
14378;DHT22;7272;53.668;9.578;2024-01-10T14:07:02;-0.40;99.90
14378;DHT22;7272;53.668;9.578;2024-01-10T14:10:05;-0.50;99.90
14378;DHT22;7272;53.668;9.578;2024-01-10T14:13:07;-0.50;99.90
14378;DHT22;7272;53.668;9.578;2024-01-10T14:16:08;-0.50;99.90
14378;DHT22;7272;53.668;9.578;2024-01-10T14:19:11;-0.60;99.90
14378;DHT22;7272;53.668;9.578;2024-01-10T14:22:13;-0.60;99.90
14378;DHT22;7272;53.668;9.578;2024-01-10T14:25:14;-0.60;99.90
14378;DHT22;7272;53.668;9.578;2024-01-10T14:28:15;-0.70;99.90
14378;DHT22;7272;53.668;9.578;2024-01-10T14:31:18;-0.70;99.90
14378;DHT22;7272;53.668;9.578;2024-01-10T14:34:19;-0.70;99.90
14378;DHT22;7272;53.668;9.578;2024-01-10T14:37:21;-0.70;99.90
14378;DHT22;7272;53.668;9.578;2024-01-10T14:40:23;-0.70;99.90
14378;DHT22;7272;53.668;9.578;2024-01-10T14:43:24;-0.60;99.90
14378;DHT22;7272;53.668;9.578;2024-01-10T14:46:25;-0.60;99.90
14378;DHT22;7272;53.668;9.578;2024-01-10T14:49:29;-0.70;99.90
14378;DHT22;7272;53.668;9.578;2024-01-10T14:52:31;-0.70;99.90
14378;DHT22;7272;53.668;9.578;2024-01-10T14:55:33;-0.70;99.90
14378;DHT22;7272;53.668;9.578;2024-01-10T14:58:34;-0.80;99.90
14378;DHT22;7272;53.668;9.578;2024-01-10T15:01:35;-0.90;99.90
14378;DHT22;7272;53.668;9.578;2024-01-10T15:04:37;-0.90;99.90
14378;DHT22;7272;53.668;9.578;2024-01-10T15:07:39;-0.80;99.90
14378;DHT22;7272;53.668;9.578;2024-01-10T15:10:40;-0.80;99.90
14378;DHT22;7272;53.668;9.578;2024-01-10T15:13:43;-0.90;99.90
14378;DHT22;7272;53.668;9.578;2024-01-10T15:16:44;-1.00;99.90
14378;DHT22;7272;53.668;9.578;2024-01-10T15:19:46;-1.10;99.90
14378;DHT22;7272;53.668;9.578;2024-01-10T15:22:47;-1.10;99.90
14378;DHT22;7272;53.668;9.578;2024-01-10T15:25:49;-1.00;99.90
14378;DHT22;7272;53.668;9.578;2024-01-10T15:28:50;-1.00;99.90
14378;DHT22;7272;53.668;9.578;2024-01-10T15:31:51;-0.90;99.90
14378;DHT22;7272;53.668;9.578;2024-01-10T15:34:52;-0.90;99.90
14378;DHT22;7272;53.668;9.578;2024-01-10T15:37:54;-0.90;99.90
14378;DHT22;7272;53.668;9.578;2024-01-10T15:40:55;-0.90;99.90
14378;DHT22;7272;53.668;9.578;2024-01-10T15:43:57;-0.90;99.90
14378;DHT22;7272;53.668;9.578;2024-01-10T15:46:58;-1.00;99.90
14378;DHT22;7272;53.668;9.578;2024-01-10T15:50:00;-1.00;99.90
14378;DHT22;7272;53.668;9.578;2024-01-10T15:53:02;-1.00;99.90
14378;DHT22;7272;53.668;9.578;2024-01-10T15:56:04;-1.00;99.90
14378;DHT22;7272;53.668;9.578;2024-01-10T15:59:05;-1.00;99.90
14378;DHT22;7272;53.668;9.578;2024-01-10T16:02:07;-1.00;99.90
14378;DHT22;7272;53.668;9.578;2024-01-10T16:05:08;-1.00;99.90
14378;DHT22;7272;53.668;9.578;2024-01-10T16:08:10;-0.90;99.90
14378;DHT22;7272;53.668;9.578;2024-01-10T16:11:12;-1.00;99.90
14378;DHT22;7272;53.668;9.578;2024-01-10T16:14:13;-1.00;99.90
14378;DHT22;7272;53.668;9.578;2024-01-10T16:17:14;-1.00;99.90
14378;DHT22;7272;53.668;9.578;2024-01-10T16:20:16;-0.90;99.90
14378;DHT22;7272;53.668;9.578;2024-01-10T16:23:18;-0.90;99.90
14378;DHT22;7272;53.668;9.578;2024-01-10T16:26:19;-0.90;99.90
14378;DHT22;7272;53.668;9.578;2024-01-10T16:29:20;-0.80;99.90
14378;DHT22;7272;53.668;9.578;2024-01-10T16:32:21;-0.80;99.90
14378;DHT22;7272;53.668;9.578;2024-01-10T16:35:24;-0.90;99.90
14378;DHT22;7272;53.668;9.578;2024-01-10T16:38:26;-0.90;99.90
14378;DHT22;7272;53.668;9.578;2024-01-10T16:41:27;-1.00;99.90
14378;DHT22;7272;53.668;9.578;2024-01-10T16:44:29;-0.90;99.90
14378;DHT22;7272;53.668;9.578;2024-01-10T16:47:30;-0.90;99.90
14378;DHT22;7272;53.668;9.578;2024-01-10T16:50:31;-0.90;99.90
14378;DHT22;7272;53.668;9.578;2024-01-10T16:53:33;-0.90;99.90
14378;DHT22;7272;53.668;9.578;2024-01-10T16:56:34;-0.90;99.90
14378;DHT22;7272;53.668;9.578;2024-01-10T16:59:36;-0.90;99.90
14378;DHT22;7272;53.668;9.578;2024-01-10T17:02:37;-0.80;99.90
14378;DHT22;7272;53.668;9.578;2024-01-10T17:05:38;-0.70;99.90
14378;DHT22;7272;53.668;9.578;2024-01-10T17:08:41;-0.80;99.90
14378;DHT22;7272;53.668;9.578;2024-01-10T17:11:43;-0.80;99.90
14378;DHT22;7272;53.668;9.578;2024-01-10T17:14:44;-0.90;99.90
14378;DHT22;7272;53.668;9.578;2024-01-10T17:17:46;-0.90;99.90
14378;DHT22;7272;53.668;9.578;2024-01-10T17:20:47;-0.90;99.90
14378;DHT22;7272;53.668;9.578;2024-01-10T17:23:49;-0.90;99.90
14378;DHT22;7272;53.668;9.578;2024-01-10T17:26:50;-0.90;99.90
14378;DHT22;7272;53.668;9.578;2024-01-10T17:29:51;-0.90;99.90
14378;DHT22;7272;53.668;9.578;2024-01-10T17:32:52;-0.80;99.90
14378;DHT22;7272;53.668;9.578;2024-01-10T17:35:53;-0.80;99.90
14378;DHT22;7272;53.668;9.578;2024-01-10T17:38:55;-0.80;99.90
14378;DHT22;7272;53.668;9.578;2024-01-10T17:41:56;-0.90;99.90
14378;DHT22;7272;53.668;9.578;2024-01-10T17:44:57;-0.80;99.90
14378;DHT22;7272;53.668;9.578;2024-01-10T17:47:59;-0.70;99.90
14378;DHT22;7272;53.668;9.578;2024-01-10T17:51:00;-0.80;99.90
14378;DHT22;7272;53.668;9.578;2024-01-10T17:54:03;-0.80;99.90
14378;DHT22;7272;53.668;9.578;2024-01-10T17:57:05;-0.90;99.90
14378;DHT22;7272;53.668;9.578;2024-01-10T18:00:07;-0.80;99.90
14378;DHT22;7272;53.668;9.578;2024-01-10T18:03:13;-0.90;99.90
14378;DHT22;7272;53.668;9.578;2024-01-10T18:06:14;-0.90;99.90
14378;DHT22;7272;53.668;9.578;2024-01-10T18:09:16;-0.90;99.90
14378;DHT22;7272;53.668;9.578;2024-01-10T18:12:17;-0.90;99.90
14378;DHT22;7272;53.668;9.578;2024-01-10T18:15:19;-0.80;99.90
14378;DHT22;7272;53.668;9.578;2024-01-10T18:18:20;-0.90;99.90
14378;DHT22;7272;53.668;9.578;2024-01-10T18:21:21;-0.80;99.90
14378;DHT22;7272;53.668;9.578;2024-01-10T18:24:23;-0.80;99.90
14378;DHT22;7272;53.668;9.578;2024-01-10T18:27:24;-0.90;99.90
14378;DHT22;7272;53.668;9.578;2024-01-10T18:30:25;-0.80;99.90
14378;DHT22;7272;53.668;9.578;2024-01-10T18:33:27;-0.80;99.90
14378;DHT22;7272;53.668;9.578;2024-01-10T18:36:28;-0.70;99.90
14378;DHT22;7272;53.668;9.578;2024-01-10T18:39:31;-0.70;99.90
14378;DHT22;7272;53.668;9.578;2024-01-10T18:42:32;-0.70;99.90
14378;DHT22;7272;53.668;9.578;2024-01-10T18:45:34;-0.60;99.90
14378;DHT22;7272;53.668;9.578;2024-01-10T18:48:35;-0.60;99.90
14378;DHT22;7272;53.668;9.578;2024-01-10T18:51:36;-0.60;99.90
14378;DHT22;7272;53.668;9.578;2024-01-10T18:54:38;-0.60;99.90
14378;DHT22;7272;53.668;9.578;2024-01-10T18:57:39;-0.50;99.90
14378;DHT22;7272;53.668;9.578;2024-01-10T19:00:41;-0.50;99.90
14378;DHT22;7272;53.668;9.578;2024-01-10T19:03:43;-0.40;99.90
14378;DHT22;7272;53.668;9.578;2024-01-10T19:06:44;-0.40;99.90
14378;DHT22;7272;53.668;9.578;2024-01-10T19:09:46;-0.40;99.90
14378;DHT22;7272;53.668;9.578;2024-01-10T19:12:48;-0.40;99.90
14378;DHT22;7272;53.668;9.578;2024-01-10T19:15:49;-0.40;99.90
14378;DHT22;7272;53.668;9.578;2024-01-10T19:18:50;-0.40;99.90
14378;DHT22;7272;53.668;9.578;2024-01-10T19:21:51;-0.40;99.90
14378;DHT22;7272;53.668;9.578;2024-01-10T19:24:53;-0.40;99.90
14378;DHT22;7272;53.668;9.578;2024-01-10T19:27:55;-0.40;99.90
14378;DHT22;7272;53.668;9.578;2024-01-10T19:30:57;-0.30;99.90